Member area
Imprimable
Liège, 02/05/2021, BEL - Lampiris 15km de Liege Métropole
List of reports > 24.4km - Result
Search: Page: [1]
277 Entries
 
Complains are not accepted anymore. Results are final.
Category
PosNrNameAgeNATTeamTimeTkmMoy.PlaceNameCity
1.5100TRILLET DENIS27BELRFCL1:47:334:25 13.611sehLIÈGE
2.5023DE FROIDMONT GUILLAUME20BEL1:48:384:28 13.482sehLA REID
3.5261THINES THOMAS28BELLASPORTIVA1:49:544:31 13.323sehBANNEUX
4.5265JOCKIN FRANÇOIS26BEL1:53:504:40 12.864sehHERMALLE-SOUS-ARGENTEAU
5.5266SALMIN LOÏC29BELI LOVE RUNNING 1:56:324:47 12.565sehLIÈGE
6.5022DEBATY CHRISTOPHE44BEL4D+1:57:024:48 12.511m40CHAUDFONTAINE
7.5237HUMBLET SIMON20BELROC1:57:224:49 12.476sehOREYE
8.5057PERIN LOGAN24BEL1:57:254:49 12.477sehANDENNE
9.40343DEGRAEVE JÉRÉMIE36BEL1:58:034:51 12.401m35ASSESSE
10.5045SCHOUMACKERS BENOÎT47BEL1:59:094:53 12.291m45BEN-AHIN
11.5282COURQUIN EDOUARD29FRAULIEGE -2:02:095:01 11.998sehLIÈGE
12.5059DUMAS JONATHAN33FRAULIEGE -2:02:215:01 11.971m30BONCELLES
13.5063GENDEBIEN DAVID46BEL2:02:345:02 11.952m45TIGNEE
14.5206MOYERSOEN BERNARD59BELRFCL2:02:485:02 11.921m55LIÈGE
15.5246FAGOT LAURENT29BELMCP RCAE2:03:015:03 11.909sehTILF
16.5248BOUILLON BASTIEN29BELTEAM MCP2:05:165:09 11.6910sehESNEUX
17.5064WELSCH SAM22BELULIEGE -2:06:145:11 11.6011sehCLAVIER
18.5046VERDURE KEVIN35BEL2:07:505:15 11.452m35LONCIN
19.5094HAWAUX ROGER57BELJIA2:07:505:15 11.452m55LIEGE
20.5215MOÏSE MARTIN32BELULIEGE -2:07:545:15 11.452m30LIÈGE
21.5213DESIR COLIN31BEL2:07:545:15 11.453m30LIÈGE
22.5095GERON DAVID46BELHERVE ATHLÉTISM2:08:105:16 11.423m45AUBEL
23.5276MALOIR ADRIEN24BEL2:08:235:16 11.4012sehJUPRELLE
24.5240DEFECHEREUX FABIAN50BELRESA2:08:335:17 11.391m50ESNEUX
25.5096JANSSEN PIERRE26BELULIÈGE2:08:345:17 11.3913sehCHAINEUX
26.5041CHAPEAU MATHIEU38BEL2:08:425:17 11.383m35LIEGE 1
27.5043BELLEFROID JEAN-CHARLES22BELULIEGE -2:09:015:18 11.3514sehLIERS
28.5050DUPONT JEREMIE39BELULIEGE -2:09:465:20 11.284m35ANDENNE
29.5176DUFAYS BRUNO26BEL2:10:065:20 11.2515sehTILFF
30.5253WILLEMS ROMAIN33BEL2:10:175:21 11.244m30ANGLEUR
31.5040FDESILLE NICOLE54BELRIWA2:10:315:21 11.221f50LA HULPE
32.5038DESILLE FREDERIC49BEL2:10:345:22 11.214m45RIXENSART
33.5049JACQUEMOT HUGO23FRAULIEGE -2:10:375:22 11.2116sehLIEGE
34.5078GROULARD LOUIS24BELULIEGE -2:10:415:22 11.2017sehVERVIERS
35.5284SANTKIN HUGUES26BEL2:10:515:22 11.1918sehEMBOURG
36.5245GUEUNING BENOÎT41BEL2:11:025:23 11.172m40MARLOIE
37.5101JENNEN THOMAS19BELRFCL2:11:075:23 11.1719sehBONCELLES
38.5217SPITS ALEXANDRE30BEL2:11:505:25 11.115m30LIÈGE
39.5283BERNAR FRANÇOIS26BELLES SYMPATHISAN2:12:165:26 11.0720sehWANZE
40.5083DECHAMBRE LOUIS24BELULIEGE -2:12:315:26 11.0521sehSOIRON
41.5118BONJEAN MICHEL30BELRCAE2:13:095:28 11.006m30LIÈGE
42.5165FRAINEUX DENIS27BEL2:14:065:30 10.9222sehBASSENGE
43.5077DEJONG DANIEL55BELRESA2:14:435:32 10.873m55ESNEUX
44.5072MOMBLONA RODRÍGUEZ RAÚL21ESPULIEGE -2:14:485:32 10.8623sehLIÈGE
45.5132GALLAROTTI LAURENT21FRAXTREM TRAIL SEN2:14:535:32 10.8524sehLIÈGE
46.5293LESSIRE OLIVIER41BEL2:15:005:32 10.843m40MARNEFFE
47.5226MARICHAL THOMAS37BELULIEGE -2:15:065:33 10.845m35SOIRON
48.5278CSIK NICOLAS43BELRFCL ATHLÉTISME2:15:085:33 10.834m40LIEGE
49.5193LEMARCHAL VINCENT42BEL2:15:225:33 10.825m40PEPINSTER
50.5192LINCE SÉBASTIEN42BEL2:15:225:33 10.826m40THEUX
51.5149FABRY RÉMI35BELMANEKE TRAIL2:15:315:34 10.806m35DONCEEL
52.5151BALTHASART OLIVIER40BEL2:15:315:34 10.807m40AINEFFE
53.5150ROUSSEAUX SAMUEL34BELMANEKE TRAIL2:15:335:34 10.807m30MARNEFFE
54.5196KOSCHNICKE YVES33BELRESA2:15:475:34 10.788m30QUEUE DU BOIS
55.5170DECHANY ROMAIN36BEL2:15:495:34 10.787m35LATINNE
56.5068ROSIÈRE FÉLIX21BEL2:16:295:36 10.7325sehBASTOGNE
57.5154RENARD CHRISTOPHE28BELULIEGE -2:16:515:37 10.7026sehANGLEUR
58.5236BARTHELEMY MICHAEL48BEL2:16:595:37 10.695m45TENNEVILLE
59.5051SMEERS YVES51BELULIEGE -2:16:595:37 10.692m50DOLEMBREUX
60.5208DISSAUX THOMAS30ITAULIÈGE2:17:015:37 10.699m30LIEGE
61.5184VANASSCHEN CHRISTIAN39BEL2:17:045:38 10.688m35FEXHE-SLINS
62.5037BINARD MARC65BELULIEGE -2:17:195:38 10.661m65ANGLEUR
63.5027MIÉVIS KEVIN32BELJCPMF ROCOURT2:17:385:39 10.6410m30ALLEUR
64.5112VIEIRA LARANJEIRA CÉDRIC29PRT2:17:385:39 10.6427sehSPRIMONT
65.5233FRAITURE MANU37BELLA MILF, ELLE E2:17:505:39 10.629m35LIEGE
66.5234RAHIER LUC-O.34BELLA MILF, ELLE E2:17:515:39 10.6211m30LIÈGE
67.5182PIRENNE MARC51BEL2:18:125:40 10.593m50AUBEL
68.5219BOLAND ANTOINE42BEL2:18:145:40 10.598m40VILLERS LE TEMPLE
69.40342FRENARD ALEXANDRINE36FRA2:18:345:41 10.571f35LIÈGE
70.5042HENRARD CHRISTOPHE41BELULIEGE -2:18:425:42 10.569m40LIÈGE
71.5071GILLET YVES62BELZATOLEFFE2:18:565:42 10.541m60VISE
72.5279BONNEU TIMMIE42BEL2:19:175:43 10.5110m40LIÈGE
73.5114ZANIN NICOLAS31BEL2:19:235:43 10.5012m30SOUMAGNE
74.5031XHAARD FRANÇOIS43BEL4D+2:19:595:45 10.4611m40ESNEUX
75.5034MEURICE JEAN-PHILIPPE46BELI LOVE RUNNING 2:20:005:45 10.466m45OUGREE
76.5021ZANETTIN JULIEN ROMAIN37BEL4D+ RRUN TILFF2:20:015:45 10.4610m35SERAING
77.5066THEAU EMILE22FRAULIEGE -2:20:055:45 10.4528sehLIÈGE
78.5067MARCHAL LUDOVIC48BELJIA2:20:105:45 10.457m45LIEGE
79.5243LOUIS CHRISTOPHE29BEL2:20:165:45 10.4429sehBASTOGNE
80.5113CAPITAO-MARTINS FRANÇOIS29BEL2:20:165:45 10.4430sehSPRIMONT
81.5222RANSY MAXIME27BEL2:20:305:46 10.4231sehBEAUFAYS
82.5030VANHAELEN PIERRE33BELMJ SPORT2:20:435:47 10.4013m30ALLEUR
83.5191JAMINON JEROME41BEL2:20:575:47 10.3912m40THEUX
84.5079EVRARD THÉO25BELULIEGE -2:21:105:48 10.3732sehLIÈGE
85.5288BURETTE NATHAN26BEL2:21:195:48 10.3633sehLIÈGE
86.5285VANDEVOORDE VALENTIN26BEL2:21:245:48 10.3534sehANTHEIT/WANZE
87.5136MICHEL OLIVIER49BELULIEGE -2:21:495:49 10.328m45HOLLOGNE-SUR-GEER
88.5107MARKIEWICZ NICOLAS30BEL2:22:095:50 10.3014m30LIÈGE
89.5082PIERRE ROMAIN28BEL2:22:205:50 10.2935sehGRIVEGNÉE
90.5108LAHAYE BENOIT30BEL2:22:285:51 10.2815m30QUEUE-DU-BOIS
91.5106LEVAUX NOËL52BELJOGGING ATTITUD2:22:415:51 10.264m50JUPILLE-SUR MEUSE
92.5105CHOJNACKI OLIVIER52BEL2:22:415:51 10.265m50AUBEL
93.5052KALKMANN FREDERIC49BEL2:22:445:51 10.269m45HANNUT
94.5053FERON OLIVIER51BEL2:22:585:52 10.246m504280 HANNUT
95.5178SCHYNS FRANÇOIS28BEL2:23:025:52 10.2436sehANGLEUR
96.5175JULÉMONT GIL28BEL2:23:035:52 10.2437sehEMBOURG
97.5125DIERENS DENNIS50BELJOGINATTITUDE2:23:045:52 10.237m50VAUX-SOUS-CHÈVREMONT
98.5247DAMAS NICOLAS29BELTEAM MCP2:23:155:53 10.2238sehBARONHEID
99.5179FBINARD ANNE-SOPHIE41BEL2:23:475:54 10.181f40SOUMAGNE
100.5186DUPONT LIONEL41BEL2:24:085:55 10.1613m40NANDRIN
101.5177MEERT TANGUYBEL2:24:105:55 10.161xxxTROOZ
102.5121FGESTER CELINE29BELULIEGE -2:24:215:55 10.141sefNEUPRE
103.5103ZARADZKI DAVID48BEL2:24:315:56 10.1310m45LIEGE
104.5143KAIRIS BERTAND29BEL2:25:005:57 10.1039sehLIEGE
105.5194LEMAL DENIS53BELON 600 BIEN2:25:045:57 10.098m50LIEGE
106.5258DE SAUVAGE STÉPHANE35BELRHCH2:25:185:58 10.0811m35VAUX-&-BORSET
107.5111FDISPAS CÉLINE46BELJIA2:25:555:59 10.031f45CHAUDFONTAINE
108.40344VANSTRAELEN THIERRY24BELULIEGE -2:26:016:00 10.0340sehWAREMME
109.5048KALFON MELVIL22FRAULIEGE -2:26:166:00 10.0141sehLIÈGE
110.5260VAN HAESDONCK GUILLAUME23BEL2:26:446:01 9.9842sehCHÂTELET
111.5122AL-ASSOUAD THOMAS28BEL2:26:496:02 9.9743sehHENRI-CHAPELLE
112.5102CHIGNESSE GEOFFRAY51BEL2:27:176:03 9.949m50MANHAY
113.5205PIRON STÉPHANE47BELZATOLEFFE2:27:196:03 9.9411m45VISÉ
114.5058DUBOIS ANTOINE26BEL2:27:216:03 9.9444sehLIÈGE
115.5056GONZALEZ CYRIL24BELULIEGE -2:27:216:03 9.9445sehLIÈGE
116.5093FTOPALBEGOVIC AJLA34BELJIA2:27:246:03 9.931f30LIEGE
117.5286GUSTIN NICOLAS26BELLES SYMPATHISAN2:27:366:03 9.9246sehHUY
118.5185LECLERCQ BENJAMIN42BEL2:28:226:05 9.8714m40SERAING
119.5124NAEDENOEN FREDERIC44BELULIÈGE2:29:316:08 9.7915m40EMBOURG
120.5085MONSEUR ARNAUD31BEL2:29:556:09 9.7716m30HEUSY
121.5274MALOIR PIERRE58BEL2:30:236:10 9.744m55JUPRELLE
122.5277BOSMANS ERIC52BELDD TEAM2:30:236:10 9.7410m50LIÈGE
123.5104LHOEST BENOIT52BEL2:30:446:11 9.7111m50BEYNE-HEUSAY
124.5183SCHOONBROODT GAETAN37BELLAMPIRIS2:30:576:12 9.7012m35BAELEN (LG.)
125.5290NOTHOMB THOMAS28BELULIEGE -2:31:306:13 9.6647sehGRANDCOURT (RUETTE)
126.5162FVOZ MANON26BEL2:32:006:14 9.632sefHABAY
127.5161LOUMRHARI LARBI62BELJCPMF OUFFET2:32:036:14 9.632m60OUFFET
128.5134GROSJEAN BENJAMIN37BEL2:32:296:15 9.6013m35VILLERS-AUX-TOURS
129.5135BERINGS TIM41PRT2:32:296:15 9.6016m40LIÈGE
130.5032FVANDEN BULCKE MÉLANIE29BEL2:32:436:16 9.593sefLIÈGE
131.5281ROMANO RAPHAËL26BELLES SYMPATHISAN2:32:596:17 9.5748sehVOTTEM
132.5295VANSTRAELEN LAURENT30BELPMX2:33:156:17 9.5517m30ARLON
133.5133FJOISTEN CÉLINE25BELULIEGE -2:33:286:18 9.544sefLIÈGE
134.5137FPIRLOT AXELLE45BELRESA2:33:496:19 9.522f45ANDRIMONT
135.5026FWUIDART CHRISTEL48BELZATOLEFFE2:34:156:20 9.493f45AUBEL
136.5287ARCADIPANE FRANÇOIS25BELLES SYMPATHISAN2:34:286:20 9.4849sehLIÈGE
137.5044CICCARELLA TONY47ITA2:34:416:21 9.4712m45ESNEUX
138.5223VANDENBROUCK STÉFAN48BEL2:34:456:21 9.4613m45SAINT NICOLAS
139.5084CHELKHA SAMI28BELULIEGE -2:34:456:21 9.4650sehLIÈGE
140.5201PIRON MAXENCE23BELHEL (HAUTE ECOL2:35:046:22 9.4451sehBASTOGNE
141.5065LEONARD HUGO22BELULIEGE -2:35:086:22 9.4452sehBONCELLES
142.5244DI CESARE STÉPHANE44BEL2:35:106:22 9.4417m40ESNEUX
143.5139BRÉVER JEAN-FRANÇOIS46BELRESA2:35:296:23 9.4214m45ANDRIMONT
144.5232CHRISTOPHE THOMAS32BEL2:35:576:24 9.3918m30NEERHEYLISSEM
145.5153TWAGIRAYEZU JEAN-TOUSSAINT38BELMANEKE TRAIL2:35:596:24 9.3914m35VIEMME
146.5187CRUTZEN FRANÇOIS37BEL2:36:036:24 9.3815m35AUBEL
147.5241GUERMANT SIMON19BELLA GODASSE BONC2:36:066:24 9.3853sehBONCELLES
148.5180MORAINE THIBAULT37BEL2:36:236:25 9.3616m35VERVIERS
149.5239FPIRARD CATHERINE44BELRESA2:36:476:26 9.342f40ESNEUX
150.5172SCHIDLO ERIC42BEL2:37:146:27 9.3118m40VISÉ
151.5130CHIARELLO PHILIPPE33BELLA RUCHE2:37:436:28 9.2819m30LIÈGE
152.5131SOETERMANS ARNAUD33BEL2:37:436:28 9.2820m30LIÈGE
153.5269JIDOVTSEFF BORIS44BELUNIVERSITÉ DE L2:37:436:28 9.2819m40LIÈGE
154.5218FENEUIL BRIEUC28BELLAMPIRIS2:37:526:29 9.2754sehLIÈGE
155.5152DEDRY CHRISTOPHE42BELMANEKE TRAIL2:38:166:30 9.2520m40SAINT-NICOLAS LIÈGE
156.5235DE SAUVAGE CÉDRIC32BELRHCH2:38:226:30 9.2421m30BERLOZ
157.5171PETIT ALAIN49BELMITHRA PHARMACE2:38:276:30 9.2415m45VERLAINE
158.5039DELMOITIEZ STEPHANE46BEL2:39:046:32 9.2016m45BATTICE
159.5123DARDENNE NICO28BEL2:39:086:32 9.2055sehLA MINERIE
160.5203CONSTANT THIBAUT36BELI LOVE RUNNING 2:39:406:33 9.1717m35CLAVIER
161.5081BOHEZ THOMAS25BELULIEGE -2:39:416:33 9.1756sehMOMALLE
162.5204WILLEME NICOLAS37BEL2:39:426:33 9.1718m35CLAVIER
163.5033THIRY PIERRE52BELI LOVE RUNNING 2:40:406:36 9.1112m50LIEGE
164.5275MALOIR PHILIPPE60BEL2:42:036:39 9.033m60JUPRELLE
165.5273WOUTERS PAUL56BELRCAE AVIRON2:42:166:39 9.025m55LIEGE
166.5070LEGRAND LUC57BELZATOLEFFE2:42:246:40 9.026m55VISE
167.5069SCHYNS EGIDE60BELZATOLEFFE2:42:426:41 9.004m60AUBEL
168.5158CONDÉ GILLES33BELULIEGE -2:43:026:41 8.9822m30LIÈGE
169.5074KLAIKENS OLIVIER31BEL2:43:446:43 8.9423m30SERAING
170.5225DURVIAUX MATHIEU34BEL2:43:466:43 8.9424m30MODAVE
171.5080FGANDELIN CORALIE24FRAULIEGE -2:43:516:43 8.945sefVAUX-SOUS-CHEVREMONT
172.5076FGATTO ALICE24FRAULIEGE -2:43:516:43 8.946sefLIÈGE
173.5199FSACRÉ ANNE56BELHEL (HAUTE ECOL2:43:536:43 8.931f55LIÈGE
174.5054WILLEMART XAVIER51BEL2:44:056:44 8.9213m50HANNUT
175.5238GHAMMAD SAMY19BELULIEGE -2:44:446:46 8.8957sehLIÈGE
176.5061HEKLINGER SYLVAIN48FRAJCPMF ROCOURT2:45:256:47 8.8517m45ALLEUR
177.5097FORTEMPS JIMMY41BEL2:45:366:48 8.8421m40SAROLAY
178.5060GASPARD CHRISTIAN55BEL2:45:376:48 8.847m55TOURINNE
179.5088BRAUWERS LUDOVIC31BEL2:45:466:48 8.8325m30OUGREE
180.5289FFOURRÉ AMANDINE19BEL2:45:516:48 8.837sefNIVELET
181.5035VANLANGENAKKER STÉPHANE44BEL2:46:046:49 8.8222m40SAIVE
182.5036DELVAUX JEAN-MARC39BEL2:46:046:49 8.8219m35SAIVE
183.5168PETITJEAN THOMAS43BEL2:46:136:49 8.8123m40HEMPTINE
184.5169DELCOURT ANTOINE47BEL2:46:146:49 8.8118m45LIÈGE
185.5148BERTRAND PATRICK51BEL2:46:376:50 8.7914m50VIEMME (FAIMES)
186.5147VOLDERS FRANCIS55BELJCPMF FAIMES2:46:386:50 8.798m55FAIMES
187.5047FLOUVIAUX CINDY42BELCHALLENGE L'AVE2:46:396:50 8.793f40PEPINSTER
188.5159DEVILLET GUÉNAËL47BELULIEGE -2:46:526:51 8.7719m45ANGLEUR
189.5160FDELBEUCK AURORE39BEL2:46:536:51 8.772f35HEUSY
190.5200GUIDI LORIS37BEL2:47:306:52 8.7420m35BONCELLES
191.5127DEMEUSY BASTIEN24FRAULIEGE -2:47:546:53 8.7258sehLIÈGE
192.5216FALCON RAMIREZ RUBEN37BEL2:47:556:53 8.7221m35HERSTAL
193.5119NZAMBA MAIC29COG2:48:166:54 8.7059sehGRÂCE HOLLOGNE
194.5086FRISON DAVID48BELRESA2:49:036:56 8.6620m45ALLEUR
195.5029THIRION JEAN-FRANÇOIS57BELAC NEUPRÉ2:49:076:56 8.669m55FLÉMALLE
196.5227FRADERMECKER CORALINE33BELULIEGE -2:49:586:58 8.612f30SOIRON
197.5190GERARD CHRISTOPHE38BELRESA2:50:046:59 8.6122m35JEHAY
198.5214CANIVET GREGORY40BEL2:50:046:59 8.6124m40LIEGE
199.5129BAUDINET ROBERT27BELULIEGE -2:50:216:59 8.5960sehSTEMBERT
200.5231MARENNE FLAVIEN33BELULIEGE -2:50:337:00 8.5826m30JETTE
201.5087RUTH MICHEL51BELRESA2:50:527:01 8.5715m50ALLEUR
202.5268PALUMBO PINO64ITA2:51:047:01 8.565m60LIEGE
203.5254SIMON GIL44BELRESA2:51:177:02 8.5525m40VISÉ
204.5255BRUWIER PIERRE54BELZATOLEFFE2:51:177:02 8.5516m50ARGENTEAU
205.5028FRIEDRICH JEAN-LUC55BELSER ATHL2:51:277:02 8.5410m55SERAING
206.5267DI GIACOMO MAURICE52BEL2:51:507:03 8.5217m50LIEGE
207.5250FCOHEUR MURIELLE41BELRESA2:51:527:03 8.524f40EMBOURG
208.5146RUGGIERI MIRKO44BEL2:52:337:05 8.4826m40HERSTAL
209.5128THOUMSIN BERTRAND26BELULIEGE -2:52:567:06 8.4761sehLIÈGE
210.5116GARROY CHRISTOPHE44BEL2:55:067:11 8.3627m40BEAUFAYS
211.5145FERON JEAN-MARC48BEL2:55:197:12 8.3521m45HORION-HOZÉMONT
212.5144MULKENS THÉO19BELULIEGE -2:56:087:14 8.3162sehVISÉ
213.5025CAMPOS BRAZO RAFAEL57BEL2:56:157:14 8.3111m55JUPRELLE
214.5221BRANS ALAIN60BELULIEGE -2:56:547:15 8.286m60BEAUFAYS
215.5242D'ATTARDI FRÉDÉRIC51BEL2:56:557:16 8.2818m504920 - SOUGNÉ-REMOUCHAMPS
216.5224FFRANCOIS VALÉRIE53BELWACO2:57:087:16 8.272f50WAREMME
217.5099ROBERT YVES51BELRESA2:57:347:17 8.2419m50OMBRET
218.5098FROBERT DOROTHY47BELRESA2:57:357:17 8.244f45OMBRET
219.5024CAMPOS BRAZO ABELARDO52BEL2:57:387:17 8.2420m50VISÉ
220.5251FSEYEN SANDRINE46BEL2:57:567:18 8.235f45LIÈGE
221.5117JENNEN PATRICK54NLD2:58:037:18 8.2221m50BONCELLES
222.5109BRISY KENNY30BEL2:58:327:19 8.2027m30HERVE
223.5110DEFRENNE LAURENT32BEL2:58:347:20 8.2028m30FAIMES
224.5252FKLOOS DAISY40BELRESA2:59:447:22 8.155f40NEUFCHÂTEAU
225.5075DELILLE BRUNO48FRAULIEGE -3:00:257:24 8.1122m45LIÈGE
226.5126ANDRÉ PAUL29BELULIEGE -3:01:097:26 8.0863sehLIÈGE
227.5280HERMAN DAVID45BEL3:01:297:27 8.0723m45ESNEUX
228.5220WENGLER SERGE34LUX3:02:227:29 8.0329m30BOCKHOLTZ
229.5294FAWOUTERS MAURINE25BEL3:03:067:31 8.008sefBARCHON
230.5142BARBOU QUENTIN25FRA3:03:237:31 7.9864sehLIÈGE
231.5249DE BRANDT NIELS30BEL3:03:247:31 7.9830m30LOKEREN
232.5292FDE THIER NAGELMACKERS FANNY26BEL3:04:047:33 7.959sefLIÈGE
233.5291ZIAN ANIS29BEL3:04:047:33 7.9565sehEMBOURG
234.5141DE ROP OLIVIER31BEL3:04:077:33 7.9531m30ESNEUX
235.5115LEJEUNE ERIC53BEL3:04:157:34 7.9522m50BEAUFAYS
236.5138FHORBACZEWSKI TATIANA24BEL3:04:337:34 7.9310sefLIÈGE
237.5256DE LAET CHRISTIAN46BELRESA3:04:337:34 7.9324m45TAVIER
238.5228KEMPENEERS MICHEL53BEL3:05:357:37 7.8923m50TROOZ
239.5229OFFERMAN CHARLY46BEL3:05:377:37 7.8925m45DOLEMBREUX
240.5140DUFERT ROMAIN26BEL3:05:517:37 7.8866sehAUBEL
241.5163MICHIELIN ERIC56BEL3:05:587:38 7.8712m55LIÈGE
242.5073BLANCHY JEAN-LOUP68BELLGS3:06:427:40 7.842m65SAINT VINCENT
243.5174RENNESON GILLES40BELMITHRA PHARMACE3:06:477:40 7.8428m40ANS
244.5207GAUTIER AXEL49BELULIEGE -3:07:187:41 7.8226m45BRUXELLES
245.5230FLEYENS MARIE-ANNE65BEL3:08:257:44 7.771f65ANGLEUR
246.5173DURY CHRISTOPHE43BELJCHSH3:10:337:49 7.6829m40JONCRET
247.5092FDANIELS CATHERINE46BELILR3:10:337:49 7.686f45SERAING
248.5091WINANDTS SÉBASTIEN43BEL3:10:357:49 7.6830m40LIÈGE
249.5195PIERRE BONNET62BELULIEGE -3:12:077:53 7.627m60LIEGE
250.5211FDEQUIEDT LUCIE22BEL3:12:167:53 7.6211sefGEMBLOUX
251.5209DEQUIEDT CLEMENT30BEL3:12:187:53 7.6132m30LIEGE
252.5181COP THOMAS35BEL3:12:497:55 7.5923m35CLERMONT SOUS HUY
253.5157FPÉTERS GENEVIÈVE55BEL3:14:137:58 7.542f55LIÈGE
254.5156FUMAROLA FABRICE51BEL3:14:147:58 7.5424m50MILMORT
255.5197FROLAND ELOÏSE23BEL3:14:417:59 7.5212sefLIEGE
256.5212DEQUIEDT FRANCK52FRA3:15:218:01 7.4925m50GEMBLOUX
257.5259AUDIFAX UWITONZE36BEL3:17:038:05 7.4324m35LIEGE
258.5210GROOTAERS THIERRY47BEL3:18:198:08 7.3827m45HACCOURT
259.5155FRAMAEKERS ISABELLE61BEL3:19:258:11 7.341f60AWANS
260.5263COMINGS PATRICK64BEL3:20:348:14 7.308m60
261.5189SCINTA VINCENT27BELULIEGE -3:22:448:19 7.2267sehLIÈGE
262.5188FMAECK ODILE26BELULIEGE -3:22:458:19 7.2213sefLIÈGE
263.5264SONY EVAN31BEL3:24:238:23 7.1633m30LIÈGE
264.5271ROZENBLAT STEPHANE57BEL3:28:018:32 7.0413m55BUZET
265.5272PETIT PASCAL49BEL3:28:038:32 7.0428m45LIEGE
266.5062PAULAUSKAS IVAN53BELULIEGE -3:30:098:37 6.9726m50BONCELLES
267.5089FCRAHAY FABIENNE58BELZATAC3:31:388:41 6.923f55LIÈGE
268.5090HOFFMANN JEAN-LUC57BELZATAC LIÈGE3:31:398:41 6.9214m55LIÈGE
269.5167FGONSET KARIN53BEL3:35:058:49 6.813f50BATTICE
270.5166LEGRAND ANDRÉ55BEL3:35:078:49 6.8115m55VERVIERS
271.5164VOSS MICHEL51BEL3:35:148:50 6.8027m50THEUX
272.5120FESSELER VALÉRIE43BEL3:35:588:52 6.786f40BEAUFAYS
DNF40341FBRACKMAN CONSTANCE20BELsefRHISNES
DNF5270DOBROWOLSKI JEAN35FRAm35LIÈGE
DNF5257MUNTEAN LUCIAN ALEXANDRU25ROUCSM SUCEAVAsehANDERLECHT
DNF5202FPECQUEUX JULIETTE22BELULIEGE -sefLIÈGE
DNF5262SCAILLET GEOFFREY25BELsehCHÊNÉE
DNF: did not finish; DSQ: disqualified; Speed in km/h
Page: [1]